Terminal Aerodrome Forecast
Issued by NWS North Platte, NE

Current Version | Previous Version | Text Only | Print | Product List | Glossary On
Versions: 1 2 3 4 5 6 7 8 9 10 11 12 13 14 15 16
000
FTUS43 KLBF 310700 AAA
TAFVTN
TAF AMD
KVTN 310709Z 3107/0106 05010KT P6SM OVC010
     FM311200 14008KT P6SM SCT020
     FM311900 16016G25KT P6SM SKC
     FM010000 17018KT P6SM SKC=

USA.gov is the U.S. government's official web portal to all federal, state and local government web resources and services.